createdAt,value
2023-09-03T00:02:00.708Z,102517.88
2023-09-03T00:04:27.819Z,102523.75
2023-09-03T00:06:54.688Z,102533.16
2023-09-03T00:09:21.571Z,102531.34
2023-09-03T00:11:48.451Z,102527.88
2023-09-03T00:14:15.368Z,102530.53
2023-09-03T00:16:42.261Z,102531.44
2023-09-03T00:19:10.606Z,102529.66
2023-09-03T00:21:37.546Z,102533.91
2023-09-03T00:24:04.478Z,102527.66
2023-09-03T00:26:31.417Z,102533.66
2023-09-03T00:28:58.419Z,102541.44
2023-09-03T00:31:26.657Z,102545.00
2023-09-03T00:33:53.582Z,102539.66
2023-09-03T00:36:21.581Z,102533.56
2023-09-03T00:38:49.009Z,102535.25
2023-09-03T00:41:15.919Z,102547.34
2023-09-03T00:43:42.900Z,102532.59
2023-09-03T00:46:09.955Z,102526.56
2023-09-03T00:48:37.421Z,102530.91
2023-09-03T00:51:06.805Z,102528.31
2023-09-03T00:53:35.221Z,102525.41
2023-09-03T00:56:02.400Z,102527.97
2023-09-03T00:58:29.477Z,102527.00
2023-09-03T01:00:57.203Z,102523.47
2023-09-03T01:03:24.386Z,102520.81
2023-09-03T01:05:51.363Z,102527.75
2023-09-03T01:08:18.768Z,102525.06
2023-09-03T01:11:02.676Z,102530.19
2023-09-03T01:13:33.149Z,102530.94
2023-09-03T01:16:01.603Z,102528.22
2023-09-03T01:18:29.723Z,102514.19
2023-09-03T01:21:34.989Z,102515.81
2023-09-03T01:24:07.462Z,102519.78
2023-09-03T01:26:53.025Z,102537.00
2023-09-03T01:29:20.993Z,102543.84
2023-09-03T01:31:49.433Z,102542.06
2023-09-03T01:34:16.566Z,102538.41
2023-09-03T01:36:44.245Z,102537.38
2023-09-03T01:39:11.136Z,102553.00
2023-09-03T01:41:39.318Z,102549.56
2023-09-03T01:44:06.364Z,102549.63
2023-09-03T01:46:38.981Z,102541.09
2023-09-03T01:49:14.268Z,102551.59
2023-09-03T01:51:50.044Z,102550.91
2023-09-03T01:54:22.257Z,102553.47
2023-09-03T01:56:59.698Z,102562.16
2023-09-03T01:59:34.387Z,102556.94
2023-09-03T02:02:01.516Z,102551.84
2023-09-03T02:04:28.634Z,102545.72
2023-09-03T02:06:55.531Z,102539.66
2023-09-03T02:09:22.374Z,102542.22
2023-09-03T02:11:49.282Z,102547.31
2023-09-03T02:14:16.229Z,102542.94
2023-09-03T02:16:43.169Z,102549.84
2023-09-03T02:19:10.664Z,102548.84
2023-09-03T02:21:37.610Z,102548.78
2023-09-03T02:24:04.759Z,102543.59
2023-09-03T02:26:31.942Z,102533.94
2023-09-03T02:28:58.835Z,102526.84
2023-09-03T02:31:25.687Z,102511.22
2023-09-03T02:33:52.522Z,102507.78
2023-09-03T02:36:19.768Z,102499.94
2023-09-03T02:38:46.730Z,102482.53
2023-09-03T02:41:13.547Z,102492.94
2023-09-03T02:43:40.397Z,102499.94
2023-09-03T02:46:07.320Z,102499.19
2023-09-03T02:48:34.375Z,102511.41
2023-09-03T02:51:01.604Z,102517.59
2023-09-03T02:53:28.728Z,102522.91
2023-09-03T02:55:57.968Z,102515.09
2023-09-03T02:58:24.863Z,102518.50
2023-09-03T03:00:51.833Z,102518.59
2023-09-03T03:03:18.912Z,102522.81
2023-09-03T03:05:45.849Z,102527.25
2023-09-03T03:08:12.696Z,102528.94
2023-09-03T03:10:39.922Z,102541.09
2023-09-03T03:13:06.804Z,102548.84
2023-09-03T03:15:35.425Z,102556.66
2023-09-03T03:18:02.464Z,102559.97
2023-09-03T03:20:29.728Z,102557.09
2023-09-03T03:22:57.442Z,102562.94
2023-09-03T03:25:24.470Z,102546.31
2023-09-03T03:27:51.462Z,102552.34
2023-09-03T03:30:18.423Z,102544.31
2023-09-03T03:32:45.535Z,102549.44
2023-09-03T03:35:12.551Z,102545.81
2023-09-03T03:37:39.505Z,102546.69
2023-09-03T03:40:07.683Z,102551.09
2023-09-03T03:42:34.628Z,102562.41
2023-09-03T03:45:01.569Z,102563.34
2023-09-03T03:47:28.583Z,102562.53
2023-09-03T03:49:55.607Z,102559.06
2023-09-03T03:52:22.794Z,102561.66
2023-09-03T03:54:50.865Z,102566.97
2023-09-03T03:57:17.761Z,102572.97
2023-09-03T03:59:44.745Z,102570.47
2023-09-03T04:02:11.751Z,102570.47
2023-09-03T04:04:38.650Z,102574.75
2023-09-03T04:07:06.136Z,102570.34
2023-09-03T04:09:33.061Z,102572.94
2023-09-03T04:11:59.956Z,102570.38
2023-09-03T04:14:26.923Z,102563.56
2023-09-03T04:16:54.044Z,102562.59
2023-09-03T04:19:21.655Z,102558.34
2023-09-03T04:21:49.017Z,102566.03
2023-09-03T04:24:15.858Z,102566.84
2023-09-03T04:26:43.330Z,102572.16
2023-09-03T04:29:10.266Z,102578.22
2023-09-03T04:31:37.574Z,102578.34
2023-09-03T04:34:06.910Z,102583.53
2023-09-03T04:36:35.140Z,102576.59
2023-09-03T04:39:02.217Z,102579.94
2023-09-03T04:41:29.101Z,102570.47
2023-09-03T04:44:08.738Z,102583.53
2023-09-03T04:46:36.028Z,102591.22
2023-09-03T04:49:02.980Z,102589.53
2023-09-03T04:51:30.227Z,102587.97
2023-09-03T04:53:57.125Z,102589.72
2023-09-03T04:56:24.965Z,102589.75
2023-09-03T04:58:51.904Z,102591.50
2023-09-03T05:01:19.376Z,102595.81
2023-09-03T05:03:46.535Z,102590.50
2023-09-03T05:06:14.349Z,102601.63
2023-09-03T05:08:41.273Z,102608.50
2023-09-03T05:11:09.074Z,102623.03
2023-09-03T05:13:35.988Z,102627.09
2023-09-03T05:16:03.689Z,102621.91
2023-09-03T05:18:30.609Z,102624.66
2023-09-03T05:20:58.540Z,102630.56
2023-09-03T05:23:25.409Z,102634.84
2023-09-03T05:25:52.355Z,102634.94
2023-09-03T05:28:19.744Z,102640.25
2023-09-03T05:30:49.462Z,102645.38
2023-09-03T05:33:16.878Z,102650.84
2023-09-03T05:35:43.904Z,102659.50
2023-09-03T05:38:10.876Z,102650.88
2023-09-03T05:40:37.851Z,102659.38
2023-09-03T05:43:04.871Z,102665.53
2023-09-03T05:45:31.828Z,102663.94
2023-09-03T05:47:59.200Z,102658.88
2023-09-03T05:50:26.586Z,102670.31
2023-09-03T05:52:53.598Z,102672.28
2023-09-03T05:55:21.391Z,102672.63
2023-09-03T05:57:48.610Z,102679.78
2023-09-03T06:00:16.096Z,102682.56
2023-09-03T06:02:43.019Z,102687.88
2023-09-03T06:05:10.608Z,102691.34
2023-09-03T06:07:37.585Z,102698.38
2023-09-03T06:10:04.852Z,102694.16
2023-09-03T06:12:31.791Z,102693.16
2023-09-03T06:14:58.809Z,102693.28
2023-09-03T06:17:25.632Z,102691.78
2023-09-03T06:19:52.773Z,102701.47
2023-09-03T06:22:20.195Z,102693.94
2023-09-03T06:24:47.063Z,102698.50
2023-09-03T06:27:13.975Z,102700.44
2023-09-03T06:29:40.870Z,102694.59
2023-09-03T06:32:07.755Z,102694.84
2023-09-03T06:34:34.614Z,102707.25
2023-09-03T06:37:01.544Z,102705.78
2023-09-03T06:39:28.891Z,102716.41
2023-09-03T06:41:55.883Z,102714.00
2023-09-03T06:44:24.483Z,102715.03
2023-09-03T06:46:51.566Z,102716.91
2023-09-03T06:49:22.005Z,102714.53
2023-09-03T06:51:49.909Z,102719.94
2023-09-03T06:54:16.801Z,102715.81
2023-09-03T06:56:43.797Z,102717.75
2023-09-03T06:59:12.155Z,102712.72
2023-09-03T07:01:40.604Z,102715.47
2023-09-03T07:04:07.576Z,102720.13
2023-09-03T07:06:34.554Z,102723.78
2023-09-03T07:09:01.479Z,102725.72
2023-09-03T07:11:28.419Z,102728.50
2023-09-03T07:13:55.360Z,102734.72
2023-09-03T07:16:22.321Z,102738.44
2023-09-03T07:18:49.855Z,102743.00
2023-09-03T07:21:16.702Z,102748.59
2023-09-03T07:23:44.252Z,102752.25
2023-09-03T07:26:11.160Z,102747.31
2023-09-03T07:28:38.588Z,102747.59
2023-09-03T07:31:05.736Z,102741.72
2023-09-03T07:33:33.674Z,102748.06
2023-09-03T07:36:00.933Z,102744.03
2023-09-03T07:38:28.905Z,102749.53
2023-09-03T07:40:56.256Z,102746.19
2023-09-03T07:43:23.862Z,102756.00
2023-09-03T07:45:51.389Z,102755.16
2023-09-03T07:48:18.553Z,102747.53
2023-09-03T07:50:45.569Z,102758.31
2023-09-03T07:53:12.515Z,102762.03
2023-09-03T07:55:40.622Z,102765.69
2023-09-03T07:58:07.734Z,102755.50
2023-09-03T08:00:34.624Z,102762.69
2023-09-03T08:03:01.667Z,102754.09
2023-09-03T08:05:29.092Z,102753.38
2023-09-03T08:07:56.364Z,102756.88
2023-09-03T08:10:23.971Z,102757.88
2023-09-03T08:12:53.701Z,102758.09
2023-09-03T08:15:30.155Z,102756.59
2023-09-03T08:18:04.913Z,102758.38
2023-09-03T08:20:31.976Z,102758.47
2023-09-03T08:22:58.997Z,102751.63
2023-09-03T08:25:26.077Z,102754.31
2023-09-03T08:27:53.101Z,102746.59
2023-09-03T08:30:20.437Z,102745.69
2023-09-03T08:32:47.432Z,102756.38
2023-09-03T08:35:15.193Z,102762.63
2023-09-03T08:37:42.201Z,102767.88
2023-09-03T08:40:09.425Z,102768.81
2023-09-03T08:42:38.683Z,102768.13
2023-09-03T08:45:06.108Z,102773.41
2023-09-03T08:47:35.080Z,102766.41
2023-09-03T08:50:03.457Z,102775.91
2023-09-03T08:52:30.882Z,102775.00
2023-09-03T08:54:58.037Z,102771.50
2023-09-03T08:57:27.145Z,102769.06
2023-09-03T08:59:54.052Z,102768.38
2023-09-03T09:02:21.471Z,102772.03
2023-09-03T09:04:48.527Z,102775.56
2023-09-03T09:07:15.720Z,102779.28
2023-09-03T09:09:43.339Z,102775.00
2023-09-03T09:12:18.433Z,102777.69
2023-09-03T09:14:54.031Z,102771.53
2023-09-03T09:17:21.402Z,102775.94
2023-09-03T09:19:48.551Z,102762.88
2023-09-03T09:22:17.245Z,102766.34
2023-09-03T09:24:46.837Z,102780.53
2023-09-03T09:27:16.822Z,102773.59
2023-09-03T09:29:44.168Z,102776.28
2023-09-03T09:32:18.851Z,102774.63
2023-09-03T09:34:45.892Z,102778.19
2023-09-03T09:37:13.229Z,102773.91
2023-09-03T09:39:47.848Z,102785.28
2023-09-03T09:42:19.873Z,102789.72
2023-09-03T09:44:50.209Z,102797.66
2023-09-03T09:47:21.523Z,102793.34
2023-09-03T09:49:49.533Z,102784.63
2023-09-03T09:52:16.993Z,102783.84
2023-09-03T09:54:44.211Z,102790.00
2023-09-03T09:57:18.002Z,102789.25
2023-09-03T09:59:45.711Z,102785.75
2023-09-03T10:02:13.854Z,102790.22
2023-09-03T10:04:45.410Z,102784.97
2023-09-03T10:07:12.944Z,102787.53
2023-09-03T10:09:40.403Z,102793.69
2023-09-03T10:12:08.185Z,102788.50
2023-09-03T10:14:35.719Z,102785.00
2023-09-03T10:17:03.934Z,102793.72
2023-09-03T10:19:39.055Z,102795.47
2023-09-03T10:22:07.298Z,102792.00
2023-09-03T10:24:35.495Z,102786.78
2023-09-03T10:27:04.940Z,102785.94
2023-09-03T10:29:34.041Z,102788.56
2023-09-03T10:32:02.078Z,102792.97
2023-09-03T10:34:31.311Z,102787.75
2023-09-03T10:37:07.263Z,102785.97
2023-09-03T10:39:34.633Z,102787.75
2023-09-03T10:42:19.540Z,102783.34
2023-09-03T10:44:58.252Z,102777.25
2023-09-03T10:47:25.743Z,102772.03
2023-09-03T10:49:53.736Z,102765.88
2023-09-03T10:52:29.681Z,102770.28
2023-09-03T10:55:14.832Z,102765.91
2023-09-03T10:57:42.683Z,102779.09
2023-09-03T11:00:11.073Z,102780.00
2023-09-03T11:02:39.269Z,102777.38
2023-09-03T11:05:16.348Z,102768.56
2023-09-03T11:07:44.702Z,102768.56
2023-09-03T11:10:21.612Z,102762.41
2023-09-03T11:12:49.445Z,102767.69
2023-09-03T11:15:16.981Z,102772.09
2023-09-03T11:17:57.316Z,102774.72
2023-09-03T11:20:49.425Z,102777.28
2023-09-03T11:23:18.284Z,102775.63
2023-09-03T11:25:45.584Z,102773.00
2023-09-03T11:28:12.955Z,102776.53
2023-09-03T11:30:40.988Z,102780.03
2023-09-03T11:33:10.324Z,102780.03
2023-09-03T11:35:42.052Z,102781.78
2023-09-03T11:38:08.951Z,102789.69
2023-09-03T11:40:36.186Z,102783.56
2023-09-03T11:43:03.500Z,102789.72
2023-09-03T11:45:30.760Z,102791.47
2023-09-03T11:47:59.274Z,102787.97
2023-09-03T11:50:26.302Z,102791.50
2023-09-03T11:52:57.354Z,102791.50
2023-09-03T11:55:26.307Z,102795.88
2023-09-03T11:57:54.433Z,102791.50
2023-09-03T12:00:21.535Z,102788.88
2023-09-03T12:02:50.150Z,102783.56
2023-09-03T12:05:17.405Z,102793.22
2023-09-03T12:07:44.315Z,102792.34
2023-09-03T12:10:11.661Z,102788.84
2023-09-03T12:12:42.657Z,102795.03
2023-09-03T12:15:20.101Z,102792.38
2023-09-03T12:17:47.646Z,102796.78
2023-09-03T12:20:40.627Z,102786.22
2023-09-03T12:23:25.338Z,102799.41
2023-09-03T12:25:52.244Z,102799.44
2023-09-03T12:28:19.246Z,102796.78
2023-09-03T12:31:12.521Z,102798.53
2023-09-03T12:33:51.896Z,102798.50
2023-09-03T12:36:20.377Z,102796.72
2023-09-03T12:38:47.863Z,102781.72
2023-09-03T12:41:14.955Z,102787.81
2023-09-03T12:43:45.050Z,102780.78
2023-09-03T12:46:12.665Z,102775.53
2023-09-03T12:48:40.064Z,102773.75
2023-09-03T12:51:07.009Z,102777.25
2023-09-03T12:53:33.856Z,102770.22
2023-09-03T12:56:00.723Z,102764.94
2023-09-03T12:58:27.637Z,102771.97
2023-09-03T13:00:54.624Z,102763.19
2023-09-03T13:03:22.060Z,102760.53
2023-09-03T13:05:51.441Z,102762.31
2023-09-03T13:08:18.907Z,102764.91
2023-09-03T13:10:45.854Z,102763.09
2023-09-03T13:13:15.542Z,102770.97
2023-09-03T13:15:42.488Z,102773.47
2023-09-03T13:18:09.633Z,102781.25
2023-09-03T13:20:36.808Z,102785.53
2023-09-03T13:23:03.840Z,102777.47
2023-09-03T13:25:35.252Z,102778.25
2023-09-03T13:28:02.526Z,102772.75
2023-09-03T13:30:29.415Z,102772.75
2023-09-03T13:32:57.313Z,102772.69
2023-09-03T13:35:24.534Z,102775.03
2023-09-03T13:37:51.450Z,102771.97
2023-09-03T13:40:18.994Z,102768.25
2023-09-03T13:42:45.848Z,102765.91
2023-09-03T13:45:13.919Z,102761.13
2023-09-03T13:47:40.938Z,102771.44
2023-09-03T13:50:08.551Z,102773.56
2023-09-03T13:52:37.023Z,102774.63
2023-09-03T13:55:04.068Z,102777.06
2023-09-03T13:57:30.959Z,102783.69
2023-09-03T13:59:58.598Z,102776.13
2023-09-03T14:02:30.161Z,102773.59
2023-09-03T14:04:58.726Z,102768.44
2023-09-03T14:07:25.825Z,102773.88
2023-09-03T14:09:53.221Z,102773.09
2023-09-03T14:12:20.465Z,102764.31
2023-09-03T14:14:47.310Z,102765.31
2023-09-03T14:17:14.186Z,102768.81
2023-09-03T14:19:41.092Z,102773.06
2023-09-03T14:22:08.092Z,102764.06
2023-09-03T14:24:36.345Z,102761.31
2023-09-03T14:27:04.327Z,102756.66
2023-09-03T14:29:31.578Z,102758.16
2023-09-03T14:31:58.517Z,102758.66
2023-09-03T14:34:25.436Z,102762.19
2023-09-03T14:36:52.370Z,102758.38
2023-09-03T14:39:23.115Z,102749.31
2023-09-03T14:41:51.396Z,102749.63
2023-09-03T14:44:18.342Z,102752.81
2023-09-03T14:46:46.264Z,102755.06
2023-09-03T14:49:13.581Z,102760.34
2023-09-03T14:51:40.577Z,102763.47
2023-09-03T14:54:07.606Z,102748.81
2023-09-03T14:56:34.434Z,102751.81
2023-09-03T14:59:01.849Z,102741.38
2023-09-03T15:01:28.916Z,102744.47
2023-09-03T15:03:56.310Z,102742.44
2023-09-03T15:06:23.965Z,102741.81
2023-09-03T15:08:54.277Z,102752.91
2023-09-03T15:11:22.455Z,102755.06
2023-09-03T15:13:54.164Z,102760.28
2023-09-03T15:16:21.860Z,102754.81
2023-09-03T15:18:49.000Z,102763.03
2023-09-03T15:21:15.931Z,102748.41
2023-09-03T15:23:43.483Z,102756.44
2023-09-03T15:26:10.432Z,102758.38
2023-09-03T15:28:37.468Z,102754.91
2023-09-03T15:31:04.912Z,102755.00
2023-09-03T15:33:31.856Z,102753.41
2023-09-03T15:35:58.776Z,102756.03
2023-09-03T15:38:25.752Z,102759.59
2023-09-03T15:40:52.653Z,102761.44
2023-09-03T15:43:22.464Z,102758.88
2023-09-03T15:45:53.192Z,102756.25
2023-09-03T15:48:21.467Z,102751.91
2023-09-03T15:50:49.020Z,102753.72
2023-09-03T15:53:16.082Z,102755.41
2023-09-03T15:55:42.977Z,102741.38
2023-09-03T15:58:09.838Z,102744.91
2023-09-03T16:00:37.256Z,102747.63
2023-09-03T16:03:04.756Z,102748.56
2023-09-03T16:05:31.669Z,102750.41
2023-09-03T16:07:58.574Z,102749.56
2023-09-03T16:10:25.587Z,102743.44
2023-09-03T16:12:58.204Z,102746.94
2023-09-03T16:15:25.913Z,102746.94
2023-09-03T16:17:53.128Z,102745.13
2023-09-03T16:20:20.703Z,102738.09
2023-09-03T16:22:47.661Z,102738.06
2023-09-03T16:25:14.701Z,102736.25
2023-09-03T16:27:41.767Z,102734.56
2023-09-03T16:30:09.743Z,102728.28
2023-09-03T16:32:38.945Z,102736.97
2023-09-03T16:35:06.158Z,102729.72
2023-09-03T16:37:33.142Z,102727.47
2023-09-03T16:40:00.190Z,102725.09
2023-09-03T16:42:27.116Z,102724.19
2023-09-03T16:44:58.473Z,102730.34
2023-09-03T16:47:29.088Z,102725.84
2023-09-03T16:49:56.320Z,102722.50
2023-09-03T16:52:23.823Z,102722.56
2023-09-03T16:54:51.446Z,102724.75
2023-09-03T16:57:18.983Z,102724.03
2023-09-03T16:59:45.900Z,102731.59
2023-09-03T17:02:16.235Z,102724.22
2023-09-03T17:04:43.691Z,102730.59
2023-09-03T17:07:11.759Z,102724.84
2023-09-03T17:09:39.107Z,102731.94
2023-09-03T17:12:06.662Z,102733.94
2023-09-03T17:14:33.538Z,102730.00
2023-09-03T17:17:04.963Z,102727.00
2023-09-03T17:19:32.797Z,102722.31
2023-09-03T17:21:59.680Z,102720.97
2023-09-03T17:24:26.534Z,102717.69
2023-09-03T17:26:53.595Z,102718.81
2023-09-03T17:29:22.314Z,102714.56
2023-09-03T17:31:51.229Z,102717.31
2023-09-03T17:34:20.317Z,102708.56
2023-09-03T17:36:47.524Z,102709.47
2023-09-03T17:39:15.116Z,102706.91
2023-09-03T17:41:42.513Z,102710.50
2023-09-03T17:44:09.780Z,102711.41
2023-09-03T17:46:37.060Z,102704.41
2023-09-03T17:49:04.829Z,102707.97
2023-09-03T17:51:31.872Z,102707.97
2023-09-03T17:53:58.960Z,102706.19
2023-09-03T17:56:25.929Z,102707.09
2023-09-03T17:58:52.968Z,102710.59
2023-09-03T18:01:23.110Z,102694.84
2023-09-03T18:03:50.828Z,102692.19
2023-09-03T18:06:17.807Z,102693.94
2023-09-03T18:08:45.139Z,102704.50
2023-09-03T18:11:15.366Z,102697.44
2023-09-03T18:13:43.081Z,102694.81
2023-09-03T18:16:11.707Z,102692.19
2023-09-03T18:18:38.665Z,102697.41
2023-09-03T18:21:05.595Z,102699.13
2023-09-03T18:23:32.629Z,102700.03
2023-09-03T18:25:59.577Z,102706.13
2023-09-03T18:28:26.499Z,102704.34
2023-09-03T18:30:53.396Z,102702.56
2023-09-03T18:33:25.323Z,102713.91
2023-09-03T18:35:53.794Z,102709.47
2023-09-03T18:38:23.260Z,102712.06
2023-09-03T18:40:51.397Z,102707.56
2023-09-03T18:43:18.292Z,102718.88
2023-09-03T18:45:45.820Z,102724.09
2023-09-03T18:48:13.649Z,102720.56
2023-09-03T18:50:40.501Z,102728.41
2023-09-03T18:53:07.387Z,102730.13
2023-09-03T18:55:37.586Z,102723.09
2023-09-03T18:58:05.256Z,102728.31
2023-09-03T19:00:32.801Z,102726.56
2023-09-03T19:02:59.858Z,102732.69
2023-09-03T19:05:26.792Z,102727.41
2023-09-03T19:07:53.883Z,102730.00
2023-09-03T19:10:21.404Z,102741.34
2023-09-03T19:12:48.588Z,102723.72
2023-09-03T19:15:15.607Z,102727.97
2023-09-03T19:17:42.563Z,102725.25
2023-09-03T19:20:09.665Z,102729.53
2023-09-03T19:22:37.045Z,102739.91
2023-09-03T19:25:04.644Z,102725.81
2023-09-03T19:27:31.547Z,102735.25
2023-09-03T19:29:59.722Z,102731.72
2023-09-03T19:32:28.404Z,102722.94
2023-09-03T19:34:55.443Z,102723.72
2023-09-03T19:37:22.394Z,102721.09
2023-09-03T19:39:49.616Z,102717.56
2023-09-03T19:42:17.077Z,102722.75
2023-09-03T19:44:43.996Z,102722.69
2023-09-03T19:47:11.014Z,102711.16
2023-09-03T19:49:37.960Z,102707.56
2023-09-03T19:52:05.070Z,102694.31
2023-09-03T19:54:32.214Z,102693.38
2023-09-03T19:56:59.067Z,102695.94
2023-09-03T19:59:25.962Z,102691.53
2023-09-03T20:01:53.172Z,102693.25
2023-09-03T20:04:20.401Z,102693.22
2023-09-03T20:06:47.270Z,102684.44
2023-09-03T20:09:14.115Z,102691.38
2023-09-03T20:11:41.079Z,102693.91
2023-09-03T20:14:10.616Z,102696.44
2023-09-03T20:16:37.511Z,102701.63
2023-09-03T20:19:04.791Z,102700.72
2023-09-03T20:21:31.811Z,102691.94
2023-09-03T20:23:58.840Z,102692.78
2023-09-03T20:26:27.220Z,102691.84
2023-09-03T20:28:54.305Z,102696.09
2023-09-03T20:31:21.652Z,102698.63
2023-09-03T20:33:49.035Z,102695.94
2023-09-03T20:36:16.156Z,102700.22
2023-09-03T20:38:43.209Z,102690.50
2023-09-03T20:41:10.340Z,102707.88
2023-09-03T20:43:37.278Z,102712.13
2023-09-03T20:46:04.731Z,102704.16
2023-09-03T20:48:31.751Z,102707.56
2023-09-03T20:51:02.078Z,102704.72
2023-09-03T20:53:29.201Z,102701.97
2023-09-03T20:55:56.682Z,102711.50
2023-09-03T20:58:25.223Z,102702.72
2023-09-03T21:00:53.022Z,102704.41
2023-09-03T21:03:20.620Z,102706.13
2023-09-03T21:05:50.789Z,102695.59
2023-09-03T21:08:18.285Z,102707.69
2023-09-03T21:10:45.192Z,102709.34
2023-09-03T21:13:12.040Z,102712.00
2023-09-03T21:15:39.534Z,102710.19
2023-09-03T21:18:06.532Z,102709.16
2023-09-03T21:20:33.517Z,102716.91
2023-09-03T21:23:00.485Z,102713.25
2023-09-03T21:25:27.431Z,102712.25
2023-09-03T21:27:56.431Z,102707.91
2023-09-03T21:30:23.269Z,102711.41
2023-09-03T21:32:50.821Z,102709.56
2023-09-03T21:35:24.168Z,102710.38
2023-09-03T21:37:51.781Z,102708.56
2023-09-03T21:40:20.651Z,102719.81
2023-09-03T21:42:51.943Z,102714.50
2023-09-03T21:45:19.329Z,102720.59
2023-09-03T21:47:46.236Z,102723.16
2023-09-03T21:50:13.117Z,102730.94
2023-09-03T21:52:40.075Z,102726.38
2023-09-03T21:55:07.352Z,102735.88
2023-09-03T21:57:34.501Z,102735.81
2023-09-03T22:00:01.628Z,102736.66
2023-09-03T22:02:28.693Z,102739.22
2023-09-03T22:04:59.083Z,102743.63
2023-09-03T22:07:26.924Z,102732.25
2023-09-03T22:09:54.146Z,102731.38
2023-09-03T22:12:24.371Z,102728.69
2023-09-03T22:14:51.510Z,102732.91
2023-09-03T22:17:18.398Z,102728.44
2023-09-03T22:19:45.259Z,102731.84
2023-09-03T22:22:12.627Z,102729.19
2023-09-03T22:24:39.572Z,102733.41
2023-09-03T22:27:06.497Z,102730.63
2023-09-03T22:29:33.382Z,102725.34
2023-09-03T22:32:00.283Z,102727.00
2023-09-03T22:34:27.157Z,102731.25
2023-09-03T22:36:54.114Z,102730.41
2023-09-03T22:39:21.478Z,102734.66
2023-09-03T22:41:48.302Z,102737.19
2023-09-03T22:44:15.625Z,102736.44
2023-09-03T22:46:42.486Z,102736.34
2023-09-03T22:49:09.398Z,102738.75
2023-09-03T22:51:36.219Z,102736.03
2023-09-03T22:54:03.641Z,102733.34
2023-09-03T22:56:30.595Z,102741.88
2023-09-03T22:58:57.623Z,102739.91
2023-09-03T23:01:24.596Z,102738.78
2023-09-03T23:03:51.672Z,102735.91
2023-09-03T23:06:18.676Z,102736.72
2023-09-03T23:08:46.162Z,102731.41
2023-09-03T23:11:13.067Z,102727.94
2023-09-03T23:13:40.325Z,102725.25
2023-09-03T23:16:07.244Z,102729.63
2023-09-03T23:18:34.901Z,102730.44
2023-09-03T23:21:04.713Z,102730.44
2023-09-03T23:23:31.598Z,102728.63
2023-09-03T23:25:58.690Z,102731.22
2023-09-03T23:28:25.740Z,102720.91
2023-09-03T23:30:52.886Z,102722.56
2023-09-03T23:33:20.338Z,102724.25
2023-09-03T23:35:47.199Z,102722.44
2023-09-03T23:38:14.124Z,102724.16
2023-09-03T23:40:41.273Z,102729.34
2023-09-03T23:43:08.152Z,102722.31
2023-09-03T23:45:35.114Z,102726.69
2023-09-03T23:48:02.159Z,102722.28
2023-09-03T23:50:29.120Z,102731.78
2023-09-03T23:52:55.939Z,102724.75
2023-09-03T23:55:22.973Z,102723.81
2023-09-03T23:57:50.460Z,102725.41
